sensor_id;sensor_type;location;lat;lon;timestamp;P1;durP1;ratioP1;P2;durP2;ratioP2
64682;SDS011;51107;47.652;19.016;2023-03-03T00:01:54;9.23;;;4.80;;
64682;SDS011;51107;47.652;19.016;2023-03-03T00:04:23;8.00;;;3.33;;
64682;SDS011;51107;47.652;19.016;2023-03-03T00:06:51;6.82;;;3.55;;
64682;SDS011;51107;47.652;19.016;2023-03-03T00:09:19;6.62;;;2.97;;
64682;SDS011;51107;47.652;19.016;2023-03-03T00:11:49;5.40;;;2.78;;
64682;SDS011;51107;47.652;19.016;2023-03-03T00:14:29;5.62;;;3.00;;
64682;SDS011;51107;47.652;19.016;2023-03-03T00:17:00;4.32;;;2.58;;
64682;SDS011;51107;47.652;19.016;2023-03-03T00:19:39;5.97;;;3.30;;
64682;SDS011;51107;47.652;19.016;2023-03-03T00:22:13;6.20;;;2.75;;
64682;SDS011;51107;47.652;19.016;2023-03-03T00:24:48;4.97;;;3.17;;
64682;SDS011;51107;47.652;19.016;2023-03-03T00:27:21;6.87;;;3.33;;
64682;SDS011;51107;47.652;19.016;2023-03-03T00:29:57;4.72;;;3.35;;
64682;SDS011;51107;47.652;19.016;2023-03-03T00:32:30;12.23;;;3.92;;
64682;SDS011;51107;47.652;19.016;2023-03-03T00:35:28;8.38;;;3.60;;
64682;SDS011;51107;47.652;19.016;2023-03-03T00:38:13;7.90;;;3.45;;
64682;SDS011;51107;47.652;19.016;2023-03-03T00:40:45;4.82;;;3.75;;
64682;SDS011;51107;47.652;19.016;2023-03-03T00:45:56;5.03;;;3.12;;
64682;SDS011;51107;47.652;19.016;2023-03-03T00:50:56;5.93;;;3.42;;
64682;SDS011;51107;47.652;19.016;2023-03-03T00:53:28;12.82;;;4.28;;
64682;SDS011;51107;47.652;19.016;2023-03-03T00:55:57;13.35;;;5.22;;
64682;SDS011;51107;47.652;19.016;2023-03-03T00:58:25;11.52;;;3.78;;
64682;SDS011;51107;47.652;19.016;2023-03-03T01:00:55;13.10;;;3.90;;
64682;SDS011;51107;47.652;19.016;2023-03-03T01:03:25;9.27;;;4.35;;
64682;SDS011;51107;47.652;19.016;2023-03-03T01:05:53;13.55;;;5.32;;
64682;SDS011;51107;47.652;19.016;2023-03-03T01:08:22;5.70;;;3.37;;
64682;SDS011;51107;47.652;19.016;2023-03-03T01:10:52;9.55;;;5.62;;
64682;SDS011;51107;47.652;19.016;2023-03-03T01:13:43;8.27;;;4.60;;
64682;SDS011;51107;47.652;19.016;2023-03-03T01:16:14;8.20;;;4.12;;
64682;SDS011;51107;47.652;19.016;2023-03-03T01:18:43;21.37;;;11.98;;
64682;SDS011;51107;47.652;19.016;2023-03-03T01:21:11;13.65;;;6.93;;
64682;SDS011;51107;47.652;19.016;2023-03-03T01:23:39;5.68;;;3.00;;
64682;SDS011;51107;47.652;19.016;2023-03-03T01:26:08;6.62;;;4.05;;
64682;SDS011;51107;47.652;19.016;2023-03-03T01:28:39;4.97;;;2.37;;
64682;SDS011;51107;47.652;19.016;2023-03-03T01:31:07;4.00;;;2.78;;
64682;SDS011;51107;47.652;19.016;2023-03-03T01:33:36;5.37;;;3.40;;
64682;SDS011;51107;47.652;19.016;2023-03-03T01:36:05;6.97;;;3.70;;
64682;SDS011;51107;47.652;19.016;2023-03-03T01:38:35;5.07;;;2.90;;
64682;SDS011;51107;47.652;19.016;2023-03-03T01:41:04;5.87;;;2.87;;
64682;SDS011;51107;47.652;19.016;2023-03-03T01:43:33;3.37;;;2.95;;
64682;SDS011;51107;47.652;19.016;2023-03-03T01:48:34;5.30;;;2.87;;
64682;SDS011;51107;47.652;19.016;2023-03-03T01:51:19;10.38;;;3.12;;
64682;SDS011;51107;47.652;19.016;2023-03-03T01:53:55;5.75;;;2.78;;
64682;SDS011;51107;47.652;19.016;2023-03-03T01:56:26;8.05;;;3.65;;
64682;SDS011;51107;47.652;19.016;2023-03-03T02:01:33;5.43;;;2.78;;
64682;SDS011;51107;47.652;19.016;2023-03-03T02:04:02;5.65;;;3.55;;
64682;SDS011;51107;47.652;19.016;2023-03-03T02:06:32;3.80;;;2.45;;
64682;SDS011;51107;47.652;19.016;2023-03-03T02:09:17;10.88;;;4.12;;
64682;SDS011;51107;47.652;19.016;2023-03-03T02:11:48;7.05;;;3.92;;
64682;SDS011;51107;47.652;19.016;2023-03-03T02:14:19;3.28;;;2.53;;
64682;SDS011;51107;47.652;19.016;2023-03-03T02:16:47;4.30;;;2.70;;
64682;SDS011;51107;47.652;19.016;2023-03-03T02:19:21;3.83;;;1.73;;
64682;SDS011;51107;47.652;19.016;2023-03-03T02:22:00;4.32;;;2.67;;
64682;SDS011;51107;47.652;19.016;2023-03-03T02:24:34;4.93;;;2.85;;
64682;SDS011;51107;47.652;19.016;2023-03-03T02:27:25;4.15;;;2.92;;
64682;SDS011;51107;47.652;19.016;2023-03-03T02:29:56;3.65;;;2.20;;
64682;SDS011;51107;47.652;19.016;2023-03-03T02:32:35;7.05;;;3.50;;
64682;SDS011;51107;47.652;19.016;2023-03-03T02:35:19;5.12;;;3.22;;
64682;SDS011;51107;47.652;19.016;2023-03-03T02:37:56;6.72;;;3.35;;
64682;SDS011;51107;47.652;19.016;2023-03-03T02:40:32;6.37;;;3.70;;
64682;SDS011;51107;47.652;19.016;2023-03-03T02:43:04;4.43;;;2.53;;
64682;SDS011;51107;47.652;19.016;2023-03-03T02:45:34;7.43;;;2.60;;
64682;SDS011;51107;47.652;19.016;2023-03-03T02:48:11;4.28;;;2.70;;
64682;SDS011;51107;47.652;19.016;2023-03-03T02:50:39;3.92;;;2.95;;
64682;SDS011;51107;47.652;19.016;2023-03-03T02:53:08;3.62;;;2.47;;
64682;SDS011;51107;47.652;19.016;2023-03-03T02:55:37;3.45;;;2.35;;
64682;SDS011;51107;47.652;19.016;2023-03-03T02:58:05;8.10;;;2.78;;
64682;SDS011;51107;47.652;19.016;2023-03-03T03:00:34;3.40;;;2.08;;
64682;SDS011;51107;47.652;19.016;2023-03-03T03:03:02;7.75;;;3.12;;
64682;SDS011;51107;47.652;19.016;2023-03-03T03:05:31;4.07;;;2.10;;
64682;SDS011;51107;47.652;19.016;2023-03-03T03:08:00;4.22;;;1.95;;
64682;SDS011;51107;47.652;19.016;2023-03-03T03:10:29;6.97;;;3.75;;
64682;SDS011;51107;47.652;19.016;2023-03-03T03:12:58;2.35;;;1.92;;
64682;SDS011;51107;47.652;19.016;2023-03-03T03:15:26;3.15;;;2.10;;
64682;SDS011;51107;47.652;19.016;2023-03-03T03:17:54;3.78;;;2.83;;
64682;SDS011;51107;47.652;19.016;2023-03-03T03:20:23;1.58;;;1.20;;
64682;SDS011;51107;47.652;19.016;2023-03-03T03:22:52;7.03;;;3.35;;
64682;SDS011;51107;47.652;19.016;2023-03-03T03:25:21;4.10;;;2.03;;
64682;SDS011;51107;47.652;19.016;2023-03-03T03:27:49;4.18;;;2.47;;
64682;SDS011;51107;47.652;19.016;2023-03-03T03:30:17;2.95;;;1.98;;
64682;SDS011;51107;47.652;19.016;2023-03-03T03:32:48;2.97;;;1.55;;
64682;SDS011;51107;47.652;19.016;2023-03-03T03:35:16;5.87;;;3.15;;
64682;SDS011;51107;47.652;19.016;2023-03-03T03:37:45;3.03;;;2.10;;
64682;SDS011;51107;47.652;19.016;2023-03-03T03:40:14;4.55;;;2.25;;
64682;SDS011;51107;47.652;19.016;2023-03-03T03:42:43;4.47;;;2.35;;
64682;SDS011;51107;47.652;19.016;2023-03-03T03:45:12;5.30;;;2.92;;
64682;SDS011;51107;47.652;19.016;2023-03-03T03:47:44;3.12;;;2.03;;
64682;SDS011;51107;47.652;19.016;2023-03-03T03:50:13;6.93;;;2.20;;
64682;SDS011;51107;47.652;19.016;2023-03-03T03:52:42;7.97;;;3.33;;
64682;SDS011;51107;47.652;19.016;2023-03-03T03:55:11;3.83;;;2.55;;
64682;SDS011;51107;47.652;19.016;2023-03-03T03:57:39;7.78;;;4.35;;
64682;SDS011;51107;47.652;19.016;2023-03-03T04:00:09;3.90;;;2.95;;
64682;SDS011;51107;47.652;19.016;2023-03-03T04:02:40;6.53;;;3.08;;
64682;SDS011;51107;47.652;19.016;2023-03-03T04:05:09;7.80;;;3.42;;
64682;SDS011;51107;47.652;19.016;2023-03-03T04:07:38;9.25;;;4.72;;
64682;SDS011;51107;47.652;19.016;2023-03-03T04:10:07;5.25;;;3.70;;
64682;SDS011;51107;47.652;19.016;2023-03-03T04:12:37;8.88;;;3.67;;
64682;SDS011;51107;47.652;19.016;2023-03-03T04:15:07;5.65;;;3.22;;
64682;SDS011;51107;47.652;19.016;2023-03-03T04:17:37;9.30;;;4.18;;
64682;SDS011;51107;47.652;19.016;2023-03-03T04:20:07;9.98;;;2.58;;
64682;SDS011;51107;47.652;19.016;2023-03-03T04:22:38;5.62;;;3.53;;
64682;SDS011;51107;47.652;19.016;2023-03-03T04:25:07;6.00;;;3.58;;
64682;SDS011;51107;47.652;19.016;2023-03-03T04:27:41;4.73;;;3.43;;
64682;SDS011;51107;47.652;19.016;2023-03-03T04:30:10;7.03;;;3.58;;
64682;SDS011;51107;47.652;19.016;2023-03-03T04:32:40;4.32;;;3.03;;
64682;SDS011;51107;47.652;19.016;2023-03-03T04:35:09;6.97;;;3.83;;
64682;SDS011;51107;47.652;19.016;2023-03-03T04:37:38;7.57;;;3.10;;
64682;SDS011;51107;47.652;19.016;2023-03-03T04:40:07;5.50;;;2.95;;
64682;SDS011;51107;47.652;19.016;2023-03-03T04:42:37;10.52;;;2.85;;
64682;SDS011;51107;47.652;19.016;2023-03-03T04:45:07;8.07;;;3.80;;
64682;SDS011;51107;47.652;19.016;2023-03-03T04:47:36;11.73;;;4.15;;
64682;SDS011;51107;47.652;19.016;2023-03-03T04:50:05;3.20;;;2.75;;
64682;SDS011;51107;47.652;19.016;2023-03-03T04:52:34;3.90;;;2.55;;
64682;SDS011;51107;47.652;19.016;2023-03-03T04:55:03;7.93;;;3.70;;
64682;SDS011;51107;47.652;19.016;2023-03-03T04:57:32;5.65;;;3.33;;
64682;SDS011;51107;47.652;19.016;2023-03-03T05:00:00;9.30;;;3.45;;
64682;SDS011;51107;47.652;19.016;2023-03-03T05:02:29;18.08;;;4.80;;
64682;SDS011;51107;47.652;19.016;2023-03-03T05:04:58;8.93;;;3.95;;
64682;SDS011;51107;47.652;19.016;2023-03-03T05:07:26;11.85;;;4.47;;
64682;SDS011;51107;47.652;19.016;2023-03-03T05:09:54;9.30;;;4.47;;
64682;SDS011;51107;47.652;19.016;2023-03-03T05:12:23;7.00;;;4.12;;
64682;SDS011;51107;47.652;19.016;2023-03-03T05:14:51;8.15;;;4.00;;
64682;SDS011;51107;47.652;19.016;2023-03-03T05:17:19;5.65;;;3.00;;
64682;SDS011;51107;47.652;19.016;2023-03-03T05:19:48;3.90;;;3.00;;
64682;SDS011;51107;47.652;19.016;2023-03-03T05:22:16;6.28;;;3.37;;
64682;SDS011;51107;47.652;19.016;2023-03-03T05:24:45;8.50;;;2.50;;
64682;SDS011;51107;47.652;19.016;2023-03-03T05:27:16;14.85;;;3.72;;
64682;SDS011;51107;47.652;19.016;2023-03-03T05:29:44;3.90;;;2.47;;
64682;SDS011;51107;47.652;19.016;2023-03-03T05:32:12;6.40;;;4.22;;
64682;SDS011;51107;47.652;19.016;2023-03-03T05:34:40;8.27;;;4.53;;
64682;SDS011;51107;47.652;19.016;2023-03-03T05:37:09;6.40;;;3.90;;
64682;SDS011;51107;47.652;19.016;2023-03-03T05:39:37;17.83;;;3.60;;
64682;SDS011;51107;47.652;19.016;2023-03-03T05:42:05;5.40;;;3.05;;
64682;SDS011;51107;47.652;19.016;2023-03-03T05:44:34;8.48;;;3.40;;
64682;SDS011;51107;47.652;19.016;2023-03-03T05:47:02;4.78;;;2.55;;
64682;SDS011;51107;47.652;19.016;2023-03-03T05:49:30;7.72;;;3.12;;
64682;SDS011;51107;47.652;19.016;2023-03-03T05:51:59;6.90;;;4.45;;
64682;SDS011;51107;47.652;19.016;2023-03-03T05:54:27;15.98;;;5.32;;
64682;SDS011;51107;47.652;19.016;2023-03-03T05:56:55;11.52;;;4.82;;
64682;SDS011;51107;47.652;19.016;2023-03-03T05:59:24;7.32;;;3.85;;
64682;SDS011;51107;47.652;19.016;2023-03-03T06:01:52;9.15;;;4.43;;
64682;SDS011;51107;47.652;19.016;2023-03-03T06:04:21;6.80;;;4.10;;
64682;SDS011;51107;47.652;19.016;2023-03-03T06:06:49;6.60;;;3.37;;
64682;SDS011;51107;47.652;19.016;2023-03-03T06:09:17;7.82;;;4.35;;
64682;SDS011;51107;47.652;19.016;2023-03-03T06:11:46;13.77;;;3.83;;
64682;SDS011;51107;47.652;19.016;2023-03-03T06:14:15;7.20;;;4.18;;
64682;SDS011;51107;47.652;19.016;2023-03-03T06:16:43;7.72;;;4.30;;
64682;SDS011;51107;47.652;19.016;2023-03-03T06:19:11;8.82;;;3.45;;
64682;SDS011;51107;47.652;19.016;2023-03-03T06:21:40;4.82;;;2.90;;
64682;SDS011;51107;47.652;19.016;2023-03-03T06:24:08;10.98;;;4.18;;
64682;SDS011;51107;47.652;19.016;2023-03-03T06:26:37;10.07;;;3.80;;
64682;SDS011;51107;47.652;19.016;2023-03-03T06:29:05;12.93;;;5.37;;
64682;SDS011;51107;47.652;19.016;2023-03-03T06:31:34;9.73;;;5.32;;
64682;SDS011;51107;47.652;19.016;2023-03-03T06:34:03;9.88;;;4.75;;
64682;SDS011;51107;47.652;19.016;2023-03-03T06:36:32;11.23;;;5.03;;
64682;SDS011;51107;47.652;19.016;2023-03-03T06:39:01;8.00;;;3.42;;
64682;SDS011;51107;47.652;19.016;2023-03-03T06:41:29;11.77;;;5.60;;
64682;SDS011;51107;47.652;19.016;2023-03-03T06:43:57;10.35;;;5.15;;
64682;SDS011;51107;47.652;19.016;2023-03-03T06:46:26;20.48;;;5.10;;
64682;SDS011;51107;47.652;19.016;2023-03-03T06:48:55;14.43;;;6.37;;
64682;SDS011;51107;47.652;19.016;2023-03-03T06:51:24;20.05;;;10.07;;
64682;SDS011;51107;47.652;19.016;2023-03-03T06:56:37;17.70;;;9.40;;
64682;SDS011;51107;47.652;19.016;2023-03-03T06:59:10;20.62;;;9.77;;
64682;SDS011;51107;47.652;19.016;2023-03-03T07:09:59;21.83;;;10.00;;
64682;SDS011;51107;47.652;19.016;2023-03-03T07:12:28;22.08;;;9.75;;
64682;SDS011;51107;47.652;19.016;2023-03-03T07:17:44;13.82;;;7.00;;
64682;SDS011;51107;47.652;19.016;2023-03-03T07:20:21;23.02;;;8.75;;
64682;SDS011;51107;47.652;19.016;2023-03-03T07:22:56;11.32;;;6.50;;
64682;SDS011;51107;47.652;19.016;2023-03-03T07:25:31;14.87;;;7.35;;
64682;SDS011;51107;47.652;19.016;2023-03-03T07:28:14;13.93;;;7.40;;
64682;SDS011;51107;47.652;19.016;2023-03-03T07:31:00;8.60;;;5.43;;
64682;SDS011;51107;47.652;19.016;2023-03-03T07:33:40;14.60;;;8.10;;
64682;SDS011;51107;47.652;19.016;2023-03-03T07:36:23;11.27;;;6.70;;
64682;SDS011;51107;47.652;19.016;2023-03-03T07:38:59;10.70;;;5.82;;
64682;SDS011;51107;47.652;19.016;2023-03-03T07:41:32;12.90;;;7.07;;
64682;SDS011;51107;47.652;19.016;2023-03-03T07:44:06;15.40;;;7.00;;
64682;SDS011;51107;47.652;19.016;2023-03-03T07:46:47;15.80;;;6.75;;
64682;SDS011;51107;47.652;19.016;2023-03-03T07:49:35;13.00;;;5.60;;
64682;SDS011;51107;47.652;19.016;2023-03-03T07:57:46;9.95;;;6.12;;
64682;SDS011;51107;47.652;19.016;2023-03-03T08:10:53;19.23;;;7.53;;
64682;SDS011;51107;47.652;19.016;2023-03-03T08:15:56;25.30;;;7.97;;
64682;SDS011;51107;47.652;19.016;2023-03-03T08:18:27;20.10;;;10.05;;
64682;SDS011;51107;47.652;19.016;2023-03-03T08:21:20;17.98;;;6.93;;
64682;SDS011;51107;47.652;19.016;2023-03-03T08:23:53;15.80;;;7.07;;
64682;SDS011;51107;47.652;19.016;2023-03-03T08:26:21;15.20;;;7.85;;
64682;SDS011;51107;47.652;19.016;2023-03-03T08:28:52;14.75;;;7.32;;
64682;SDS011;51107;47.652;19.016;2023-03-03T08:31:22;19.73;;;7.97;;
64682;SDS011;51107;47.652;19.016;2023-03-03T08:34:08;15.55;;;7.72;;
64682;SDS011;51107;47.652;19.016;2023-03-03T08:36:36;8.82;;;5.28;;
64682;SDS011;51107;47.652;19.016;2023-03-03T08:39:04;11.52;;;5.93;;
64682;SDS011;51107;47.652;19.016;2023-03-03T08:41:33;19.25;;;6.90;;
64682;SDS011;51107;47.652;19.016;2023-03-03T08:44:02;9.52;;;5.45;;
64682;SDS011;51107;47.652;19.016;2023-03-03T08:46:30;14.05;;;5.72;;
64682;SDS011;51107;47.652;19.016;2023-03-03T08:48:59;8.50;;;5.47;;
64682;SDS011;51107;47.652;19.016;2023-03-03T08:51:29;9.88;;;5.25;;
64682;SDS011;51107;47.652;19.016;2023-03-03T08:53:57;8.70;;;4.97;;
64682;SDS011;51107;47.652;19.016;2023-03-03T08:56:25;9.68;;;6.28;;
64682;SDS011;51107;47.652;19.016;2023-03-03T08:58:54;16.15;;;6.20;;
64682;SDS011;51107;47.652;19.016;2023-03-03T09:01:30;12.73;;;6.35;;
64682;SDS011;51107;47.652;19.016;2023-03-03T09:03:59;11.82;;;5.87;;
64682;SDS011;51107;47.652;19.016;2023-03-03T09:06:28;18.10;;;6.75;;
64682;SDS011;51107;47.652;19.016;2023-03-03T09:08:57;12.25;;;6.70;;
64682;SDS011;51107;47.652;19.016;2023-03-03T09:11:26;15.57;;;6.97;;
64682;SDS011;51107;47.652;19.016;2023-03-03T09:14:11;17.92;;;5.87;;
64682;SDS011;51107;47.652;19.016;2023-03-03T09:16:50;11.52;;;6.18;;
64682;SDS011;51107;47.652;19.016;2023-03-03T09:21:52;11.77;;;5.80;;
64682;SDS011;51107;47.652;19.016;2023-03-03T09:24:30;10.60;;;4.95;;
64682;SDS011;51107;47.652;19.016;2023-03-03T09:27:06;9.90;;;6.07;;
64682;SDS011;51107;47.652;19.016;2023-03-03T09:29:44;9.32;;;5.37;;
64682;SDS011;51107;47.652;19.016;2023-03-03T09:46:32;22.48;;;3.30;;
64682;SDS011;51107;47.652;19.016;2023-03-03T10:09:07;3.03;;;1.98;;
64682;SDS011;51107;47.652;19.016;2023-03-03T10:22:32;4.57;;;1.92;;
64682;SDS011;51107;47.652;19.016;2023-03-03T10:53:21;4.20;;;1.90;;
64682;SDS011;51107;47.652;19.016;2023-03-03T10:56:03;3.58;;;2.05;;
64682;SDS011;51107;47.652;19.016;2023-03-03T11:04:22;2.97;;;2.10;;
64682;SDS011;51107;47.652;19.016;2023-03-03T11:10:19;3.25;;;2.12;;
64682;SDS011;51107;47.652;19.016;2023-03-03T11:18:32;5.25;;;2.00;;
64682;SDS011;51107;47.652;19.016;2023-03-03T11:24:27;8.73;;;2.50;;
64682;SDS011;51107;47.652;19.016;2023-03-03T11:27:23;3.35;;;1.80;;
64682;SDS011;51107;47.652;19.016;2023-03-03T11:33:19;7.03;;;2.10;;
64682;SDS011;51107;47.652;19.016;2023-03-03T11:39:04;4.95;;;2.30;;
64682;SDS011;51107;47.652;19.016;2023-03-03T11:41:41;2.37;;;1.77;;
64682;SDS011;51107;47.652;19.016;2023-03-03T11:44:37;2.10;;;1.50;;
64682;SDS011;51107;47.652;19.016;2023-03-03T11:55:28;6.15;;;2.55;;
64682;SDS011;51107;47.652;19.016;2023-03-03T12:01:21;7.00;;;3.28;;
64682;SDS011;51107;47.652;19.016;2023-03-03T12:04:04;3.28;;;2.22;;
64682;SDS011;51107;47.652;19.016;2023-03-03T12:12:24;3.87;;;2.00;;
64682;SDS011;51107;47.652;19.016;2023-03-03T12:23:10;3.55;;;2.17;;
64682;SDS011;51107;47.652;19.016;2023-03-03T12:25:42;3.28;;;2.47;;
64682;SDS011;51107;47.652;19.016;2023-03-03T12:28:21;4.43;;;1.70;;
64682;SDS011;51107;47.652;19.016;2023-03-03T12:45:10;3.85;;;1.60;;
64682;SDS011;51107;47.652;19.016;2023-03-03T12:48:41;3.53;;;2.03;;
64682;SDS011;51107;47.652;19.016;2023-03-03T12:56:50;4.22;;;2.67;;
64682;SDS011;51107;47.652;19.016;2023-03-03T13:05:19;3.87;;;2.20;;
64682;SDS011;51107;47.652;19.016;2023-03-03T13:16:44;3.83;;;2.67;;
64682;SDS011;51107;47.652;19.016;2023-03-03T13:19:51;4.80;;;2.65;;
64682;SDS011;51107;47.652;19.016;2023-03-03T13:27:50;3.78;;;2.55;;
64682;SDS011;51107;47.652;19.016;2023-03-03T13:30:24;5.80;;;2.80;;
64682;SDS011;51107;47.652;19.016;2023-03-03T13:38:52;4.18;;;2.45;;
64682;SDS011;51107;47.652;19.016;2023-03-03T13:41:30;6.32;;;2.83;;
64682;SDS011;51107;47.652;19.016;2023-03-03T13:44:23;4.93;;;2.83;;
64682;SDS011;51107;47.652;19.016;2023-03-03T13:47:13;6.47;;;3.30;;
64682;SDS011;51107;47.652;19.016;2023-03-03T13:52:52;8.50;;;3.53;;
64682;SDS011;51107;47.652;19.016;2023-03-03T13:55:28;5.45;;;3.45;;
64682;SDS011;51107;47.652;19.016;2023-03-03T14:01:03;5.93;;;3.10;;
64682;SDS011;51107;47.652;19.016;2023-03-03T14:03:47;6.53;;;3.20;;
64682;SDS011;51107;47.652;19.016;2023-03-03T14:06:33;6.15;;;2.95;;
64682;SDS011;51107;47.652;19.016;2023-03-03T14:20:29;5.07;;;3.15;;
64682;SDS011;51107;47.652;19.016;2023-03-03T14:26:09;4.62;;;3.08;;
64682;SDS011;51107;47.652;19.016;2023-03-03T14:28:40;5.35;;;3.60;;
64682;SDS011;51107;47.652;19.016;2023-03-03T14:33:59;6.68;;;3.60;;
64682;SDS011;51107;47.652;19.016;2023-03-03T14:36:33;5.60;;;3.28;;
64682;SDS011;51107;47.652;19.016;2023-03-03T14:42:12;6.35;;;3.17;;
64682;SDS011;51107;47.652;19.016;2023-03-03T14:44:56;5.40;;;3.58;;
64682;SDS011;51107;47.652;19.016;2023-03-03T14:47:28;5.53;;;3.80;;
64682;SDS011;51107;47.652;19.016;2023-03-03T14:49:57;6.40;;;2.80;;
64682;SDS011;51107;47.652;19.016;2023-03-03T14:52:32;7.45;;;4.30;;
64682;SDS011;51107;47.652;19.016;2023-03-03T14:55:04;6.68;;;3.33;;
64682;SDS011;51107;47.652;19.016;2023-03-03T14:58:01;4.25;;;2.40;;
64682;SDS011;51107;47.652;19.016;2023-03-03T15:00:31;6.90;;;3.00;;
64682;SDS011;51107;47.652;19.016;2023-03-03T15:03:17;5.60;;;3.15;;
64682;SDS011;51107;47.652;19.016;2023-03-03T15:05:49;5.37;;;2.50;;
64682;SDS011;51107;47.652;19.016;2023-03-03T15:08:31;7.43;;;3.25;;
64682;SDS011;51107;47.652;19.016;2023-03-03T15:13:51;8.07;;;3.92;;
64682;SDS011;51107;47.652;19.016;2023-03-03T15:16:23;7.35;;;3.83;;
64682;SDS011;51107;47.652;19.016;2023-03-03T15:24:43;11.30;;;4.30;;
64682;SDS011;51107;47.652;19.016;2023-03-03T15:33:04;7.87;;;3.47;;
64682;SDS011;51107;47.652;19.016;2023-03-03T15:35:49;4.62;;;3.12;;
64682;SDS011;51107;47.652;19.016;2023-03-03T15:40:58;7.30;;;3.80;;
64682;SDS011;51107;47.652;19.016;2023-03-03T16:01:06;6.22;;;3.42;;
64682;SDS011;51107;47.652;19.016;2023-03-03T16:03:44;6.90;;;3.25;;
64682;SDS011;51107;47.652;19.016;2023-03-03T16:12:05;5.47;;;3.10;;
64682;SDS011;51107;47.652;19.016;2023-03-03T16:20:22;12.40;;;4.90;;
64682;SDS011;51107;47.652;19.016;2023-03-03T16:26:12;7.40;;;4.25;;
64682;SDS011;51107;47.652;19.016;2023-03-03T16:40:57;14.50;;;6.95;;
64682;SDS011;51107;47.652;19.016;2023-03-03T16:46:44;4.72;;;3.47;;
64682;SDS011;51107;47.652;19.016;2023-03-03T16:49:19;6.10;;;4.85;;
64682;SDS011;51107;47.652;19.016;2023-03-03T16:52:02;8.23;;;3.55;;
64682;SDS011;51107;47.652;19.016;2023-03-03T17:00:08;9.55;;;4.72;;
64682;SDS011;51107;47.652;19.016;2023-03-03T17:11:19;17.60;;;5.30;;
64682;SDS011;51107;47.652;19.016;2023-03-03T17:23:31;9.30;;;5.53;;
64682;SDS011;51107;47.652;19.016;2023-03-03T17:26:22;10.18;;;5.60;;
64682;SDS011;51107;47.652;19.016;2023-03-03T17:29:01;15.18;;;7.25;;
64682;SDS011;51107;47.652;19.016;2023-03-03T17:37:18;11.00;;;6.00;;
64682;SDS011;51107;47.652;19.016;2023-03-03T17:40:20;12.02;;;6.40;;
64682;SDS011;51107;47.652;19.016;2023-03-03T17:45:35;14.18;;;6.03;;
64682;SDS011;51107;47.652;19.016;2023-03-03T18:10:32;12.30;;;7.28;;
64682;SDS011;51107;47.652;19.016;2023-03-03T18:16:06;13.68;;;6.75;;
64682;SDS011;51107;47.652;19.016;2023-03-03T18:19:01;9.57;;;5.47;;
64682;SDS011;51107;47.652;19.016;2023-03-03T18:22:16;15.27;;;6.05;;
64682;SDS011;51107;47.652;19.016;2023-03-03T18:25:22;11.02;;;7.05;;
64682;SDS011;51107;47.652;19.016;2023-03-03T18:28:14;9.98;;;5.78;;
64682;SDS011;51107;47.652;19.016;2023-03-03T18:30:56;12.35;;;5.05;;
64682;SDS011;51107;47.652;19.016;2023-03-03T18:33:42;12.18;;;7.28;;
64682;SDS011;51107;47.652;19.016;2023-03-03T18:38:56;10.98;;;5.75;;
64682;SDS011;51107;47.652;19.016;2023-03-03T18:41:26;9.38;;;5.75;;
64682;SDS011;51107;47.652;19.016;2023-03-03T18:43:58;11.85;;;7.35;;
64682;SDS011;51107;47.652;19.016;2023-03-03T18:49:04;14.00;;;7.47;;
64682;SDS011;51107;47.652;19.016;2023-03-03T19:05:16;17.00;;;7.78;;
64682;SDS011;51107;47.652;19.016;2023-03-03T19:07:51;14.23;;;5.95;;
64682;SDS011;51107;47.652;19.016;2023-03-03T19:16:04;11.18;;;5.68;;
64682;SDS011;51107;47.652;19.016;2023-03-03T19:18:58;9.30;;;5.32;;
64682;SDS011;51107;47.652;19.016;2023-03-03T19:21:29;17.02;;;7.00;;
64682;SDS011;51107;47.652;19.016;2023-03-03T19:27:02;8.07;;;4.95;;
64682;SDS011;51107;47.652;19.016;2023-03-03T19:47:46;9.40;;;4.90;;
64682;SDS011;51107;47.652;19.016;2023-03-03T19:53:17;7.40;;;4.30;;
64682;SDS011;51107;47.652;19.016;2023-03-03T19:56:18;10.90;;;5.82;;
64682;SDS011;51107;47.652;19.016;2023-03-03T20:07:48;10.50;;;5.82;;
64682;SDS011;51107;47.652;19.016;2023-03-03T20:13:49;10.23;;;5.30;;
64682;SDS011;51107;47.652;19.016;2023-03-03T20:16:41;5.22;;;3.50;;
64682;SDS011;51107;47.652;19.016;2023-03-03T20:22:11;12.27;;;5.15;;
64682;SDS011;51107;47.652;19.016;2023-03-03T20:30:41;14.70;;;6.62;;
64682;SDS011;51107;47.652;19.016;2023-03-03T20:39:04;15.70;;;5.47;;
64682;SDS011;51107;47.652;19.016;2023-03-03T20:46:54;11.30;;;4.45;;
64682;SDS011;51107;47.652;19.016;2023-03-03T21:03:35;9.48;;;4.78;;
64682;SDS011;51107;47.652;19.016;2023-03-03T21:06:15;12.75;;;5.57;;
64682;SDS011;51107;47.652;19.016;2023-03-03T21:08:52;8.75;;;4.72;;
64682;SDS011;51107;47.652;19.016;2023-03-03T21:13:57;8.93;;;5.72;;
64682;SDS011;51107;47.652;19.016;2023-03-03T21:16:28;11.30;;;6.18;;
64682;SDS011;51107;47.652;19.016;2023-03-03T21:19:00;16.48;;;5.53;;
64682;SDS011;51107;47.652;19.016;2023-03-03T21:21:33;10.15;;;4.87;;
64682;SDS011;51107;47.652;19.016;2023-03-03T21:24:09;11.60;;;3.90;;
64682;SDS011;51107;47.652;19.016;2023-03-03T21:31:52;20.25;;;7.60;;
64682;SDS011;51107;47.652;19.016;2023-03-03T21:34:43;12.52;;;6.62;;
64682;SDS011;51107;47.652;19.016;2023-03-03T21:37:12;14.23;;;6.95;;
64682;SDS011;51107;47.652;19.016;2023-03-03T21:43:01;15.13;;;5.87;;
64682;SDS011;51107;47.652;19.016;2023-03-03T21:45:29;8.27;;;4.05;;
64682;SDS011;51107;47.652;19.016;2023-03-03T21:47:58;7.65;;;4.62;;
64682;SDS011;51107;47.652;19.016;2023-03-03T21:50:30;10.15;;;4.62;;
64682;SDS011;51107;47.652;19.016;2023-03-03T21:52:59;8.82;;;3.60;;
64682;SDS011;51107;47.652;19.016;2023-03-03T21:55:27;6.80;;;3.65;;
64682;SDS011;51107;47.652;19.016;2023-03-03T21:57:56;6.47;;;3.53;;
64682;SDS011;51107;47.652;19.016;2023-03-03T22:00:24;7.07;;;3.50;;
64682;SDS011;51107;47.652;19.016;2023-03-03T22:02:52;15.55;;;4.37;;
64682;SDS011;51107;47.652;19.016;2023-03-03T22:05:23;6.62;;;3.58;;
64682;SDS011;51107;47.652;19.016;2023-03-03T22:07:52;10.80;;;5.40;;
64682;SDS011;51107;47.652;19.016;2023-03-03T22:10:20;11.85;;;4.35;;
64682;SDS011;51107;47.652;19.016;2023-03-03T22:12:49;14.30;;;4.82;;
64682;SDS011;51107;47.652;19.016;2023-03-03T22:15:17;4.95;;;3.75;;
64682;SDS011;51107;47.652;19.016;2023-03-03T22:17:46;5.85;;;3.72;;
64682;SDS011;51107;47.652;19.016;2023-03-03T22:20:14;11.07;;;4.25;;
64682;SDS011;51107;47.652;19.016;2023-03-03T22:22:42;10.05;;;3.83;;
64682;SDS011;51107;47.652;19.016;2023-03-03T22:25:11;5.75;;;3.70;;
64682;SDS011;51107;47.652;19.016;2023-03-03T22:27:39;11.45;;;4.35;;
64682;SDS011;51107;47.652;19.016;2023-03-03T22:30:08;7.45;;;2.85;;
64682;SDS011;51107;47.652;19.016;2023-03-03T22:32:37;7.68;;;3.83;;
64682;SDS011;51107;47.652;19.016;2023-03-03T22:35:05;8.60;;;3.55;;
64682;SDS011;51107;47.652;19.016;2023-03-03T22:37:33;6.60;;;3.42;;
64682;SDS011;51107;47.652;19.016;2023-03-03T22:40:02;6.20;;;3.12;;
64682;SDS011;51107;47.652;19.016;2023-03-03T22:42:30;6.80;;;3.45;;
64682;SDS011;51107;47.652;19.016;2023-03-03T22:44:58;9.68;;;4.07;;
64682;SDS011;51107;47.652;19.016;2023-03-03T22:47:27;7.82;;;2.83;;
64682;SDS011;51107;47.652;19.016;2023-03-03T22:49:55;7.37;;;3.45;;
64682;SDS011;51107;47.652;19.016;2023-03-03T22:52:23;6.30;;;3.47;;
64682;SDS011;51107;47.652;19.016;2023-03-03T22:54:52;6.00;;;3.25;;
64682;SDS011;51107;47.652;19.016;2023-03-03T22:57:20;6.28;;;3.42;;